1951 Tropical Low NOT_NAMED (1951045S16123)


IBTrACS version v04r00. Visit IBTrACS website for data access.
Please direct all questions to the IBTrACS Q and A forum

Storm track - Intensity - Wind Radii - Intensity Data - Source Data - All data

Summary Information

Storm ID 1951045S16123
Start Feb 14 01Z
Max Intensity 990 mb (Feb 16 01Z)
End Feb 18 23Z
ATCF IDs ,SH191951
Track status Best track data.

Storm track plot

Map of storm track

Intensity plots

Map of storm track

Radial wind information

No radial wind information for this storm


Position and Intensity Table

BASIN ISO_TIME_________ NATURE LAT LON WMO PRES BOM PRES
degrees north degrees east mb mb
SI 1951-02-14 01:00:00 NR -16.00 122.50 999 999
SI 03:00:00 NR -15.97 122.38
SI 06:00:00 NR -15.93 122.20
SI 09:00:00 NR -15.91 122.00
SI 12:00:00 NR -15.90 121.77
SI 15:00:00 NR -15.93 121.52
SI 18:00:00 NR -15.99 121.22
SI 21:00:00 NR -16.09 120.86
SI 23:00:00 NR -16.20 120.40
SI 1951-02-15 00:00:00 TS -16.31 119.98
SI 01:00:00 TS -16.41 119.70 996 996
SI 03:00:00 TS -16.60 119.28
SI 06:00:00 TS -16.88 118.70
SI 09:00:00 TS -17.17 118.12
SI 11:00:00 TS -17.38 117.73
SI 12:00:00 TS -17.48 117.54
SI 15:00:00 TS -17.79 116.97
SI 18:00:00 TS -18.09 116.42
SI 21:00:00 TS -18.39 115.88
SI 23:00:00 TS -18.57 115.54
SI 1951-02-16 00:00:00 TS -18.66 115.38
SI 01:00:00 TS -18.75 115.22 990 990
SI 03:00:00 TS -18.90 114.92
SI 06:00:00 TS -19.10 114.50
SI 09:00:00 TS -19.27 114.08
SI 11:00:00 TS -19.36 113.79
SI 12:00:00 TS -19.41 113.65
SI 15:00:00 TS -19.53 113.21
SI 18:00:00 TS -19.65 112.75
SI 21:00:00 TS -19.77 112.26
SI 23:00:00 TS -19.86 111.92
SI 1951-02-17 00:00:00 TS -19.91 111.74
SI 01:00:00 TS -19.96 111.56 990 990
SI 03:00:00 TS -20.07 111.20 990
SI 06:00:00 TS -20.24 110.64 991
SI 09:00:00 TS -20.41 110.06 992
SI 11:00:00 TS -20.55 109.69 992
SI 11:30:00 TS -20.58 109.60 993 993
SI 12:00:00 TS -20.61 109.51
SI 15:00:00 TS -20.84 108.99
SI 18:00:00 TS -21.10 108.51
SI 21:00:00 TS -21.38 108.06
SI 23:00:00 TS -21.60 107.78
SI 1951-02-18 00:00:00 TS -21.72 107.64
SI 01:00:00 TS -21.80 107.53 998 998
SI 03:00:00 TS -21.97 107.35 998
SI 06:00:00 TS -22.30 107.14 998
SI 07:00:00 TS -22.27 107.22 998 998
SI 09:00:00 TS -22.48 107.23
SI 11:00:00 TS -22.82 107.20
SI 12:00:00 TS -22.99 107.21
SI 15:00:00 TS -23.49 107.34
SI 18:00:00 TS -24.01 107.58
SI 21:00:00 NR -24.54 107.96
SI 23:00:00 NR -24.90 108.20

Source Information

Agency Information
USA bsh191951.txt
TOKYO
CMA
HKO
NEWDELHI
REUNION
BOM IDCKMSTM0S.csv:Line=1674:unnamed
NADI
WELLINGTON
DS824 s_hem.dat:559:19S
TD9636 cons_worldwide_trop_cyclone_18710101-19891231-006:Line=3736
TD9635
NEUMANN
MLC

All available IBTrACS Data

SEASON BASIN SUBBASIN ISO_TIME_________ NATURE LAT LON WMO PRES WMO AGENCY DIST2LAND LANDFALL IFLAG USA AGENCY USA ATCF_ID USA LAT USA LON USA SSHS BOM LAT BOM LON BOM PRES BOM PRES_METHOD DS824 LAT DS824 LON DS824 STAGE TD9636 LAT TD9636 LON TD9636 STAGE STORM SPEED STORM DIR
Year degrees north degrees east mb km km degrees north degrees east 1 degrees north degrees east mb degrees north degrees east degrees north degrees east kts degrees
1951 SI WA 1951-02-14 01:00:00 NR -16.00 122.50 999 bom 70 70 ______O_______ -1 -16.00 122.50 999 4 284
1951 SI WA 03:00:00 NR -15.97 122.38 77 77 ______P_______ -1 -15.97 122.38 4 283
1951 SI WA 06:00:00 NR -15.93 122.20 100 100 ______P_______ -1 -15.93 122.20 4 280
1951 SI WA 09:00:00 NR -15.91 122.00 115 115 ______P_______ -1 -15.91 122.00 4 274
1951 SI WA 12:00:00 NR -15.90 121.77 131 131 ______P_______ -1 -15.90 121.77 5 268
1951 SI WA 15:00:00 NR -15.93 121.52 154 154 ______P_______ -1 -15.93 121.52 5 261
1951 SI WA 18:00:00 NR -15.99 121.22 170 170 ______P_______ -1 -15.99 121.22 6 256
1951 SI WA 21:00:00 NR -16.09 120.86 186 195 ______P_______ -1 -16.09 120.86 10 254
1951 SI WA 23:00:00 NR -16.20 120.40 226 235 ______P___O___ -1 -16.18 120.60 -16.30 119.60 7 18 255
1951 SI WA 1951-02-15 00:00:00 TS -16.31 119.98 259 269 O_____P__OP___ jtwc_sh SH191951 -16.40 119.40 -1 -16.24 120.45 -16.40 119.40 TC -16.39 119.42 7 21 253
1951 SI WA 01:00:00 TS -16.41 119.70 996 bom 284 284 P_____O__PP___ SH191951 -16.48 119.22 -1 -16.30 120.30 996 -16.48 119.22 TC -16.48 119.23 7 15 247
1951 SI WA 03:00:00 TS -16.60 119.28 317 327 P_____P__PP___ SH191951 -16.64 118.85 -1 -16.44 119.97 -16.64 118.85 TC -16.65 118.86 7 13 244
1951 SI WA 06:00:00 TS -16.88 118.70 360 338 O_____P__OP___ jtwc_sh SH191951 -16.90 118.30 -1 -16.70 119.42 -16.90 118.30 TC -16.92 118.31 7 13 243
1951 SI WA 09:00:00 TS -17.17 118.12 341 331 P_____P__PP___ SH191951 -17.19 117.74 -1 -17.00 118.82 -17.19 117.74 TC -17.21 117.76 7 13 241
1951 SI WA 11:00:00 TS -17.38 117.73 336 328 P_____P__PO___ SH191951 -17.40 117.38 -1 -17.21 118.40 -17.40 117.38 TC -17.40 117.40 7 13 241
1951 SI WA 12:00:00 TS -17.48 117.54 330 312 O_____P__OP___ jtwc_sh SH191951 -17.50 117.20 -1 -17.32 118.18 -17.50 117.20 TC -17.50 117.22 7 13 241
1951 SI WA 15:00:00 TS -17.79 116.97 312 280 P_____P__PP___ SH191951 -17.80 116.68 -1 -17.65 117.52 -17.80 116.68 TC -17.81 116.69 7 12 240
1951 SI WA 18:00:00 TS -18.09 116.42 281 259 O_____P__OP___ jtwc_sh SH191951 -18.10 116.20 -1 -17.99 116.84 -18.10 116.20 TC -18.12 116.17 7 12 240
1951 SI WA 21:00:00 TS -18.39 115.88 259 251 P_____P__PP___ SH191951 -18.41 115.73 -1 -18.31 116.17 -18.41 115.73 TC -18.41 115.69 7 12 240
1951 SI WA 23:00:00 TS -18.57 115.54 256 252 P_____P__PO___ SH191951 -18.61 115.44 -1 -18.51 115.73 -18.61 115.44 TC -18.60 115.40 7 11 240
1951 SI WA 1951-02-16 00:00:00 TS -18.66 115.38 252 258 O_____P__OP___ jtwc_sh SH191951 -18.70 115.30 -1 -18.61 115.51 -18.70 115.30 TC -18.69 115.27 7 11 240
1951 SI WA 01:00:00 TS -18.75 115.22 990 bom 264 255 P_____O__PP___ SH191951 -18.79 115.17 -1 -18.70 115.30 990 4 -18.79 115.17 TC -18.78 115.14 7 10 241
1951 SI WA 03:00:00 TS -18.90 114.92 261 258 P_____P__PP___ SH191951 -18.97 114.93 -1 -18.82 114.92 -18.97 114.93 TC -18.95 114.90 7 9 242
1951 SI WA 06:00:00 TS -19.10 114.50 267 263 O_____P__OP___ jtwc_sh SH191951 -19.20 114.60 -1 -18.99 114.37 -19.20 114.60 TC -19.18 114.57 7 9 245
1951 SI WA 09:00:00 TS -19.27 114.08 275 275 P_____P__PP___ SH191951 -19.37 114.26 -1 -19.13 113.83 -19.37 114.26 TC -19.39 114.23 7 9 249
1951 SI WA 11:00:00 TS -19.36 113.79 280 280 P_____P__PO___ SH191951 -19.46 114.02 -1 -19.22 113.48 -19.46 114.02 TC -19.50 114.00 7 9 251
1951 SI WA 12:00:00 TS -19.41 113.65 281 273 O_____P__OP___ jtwc_sh SH191951 -19.50 113.90 -1 -19.27 113.30 -19.50 113.90 TC -19.55 113.88 7 9 253
1951 SI WA 15:00:00 TS -19.53 113.21 280 273 P_____P__PP___ SH191951 -19.61 113.52 -1 -19.41 112.78 -19.61 113.52 TC -19.67 113.49 7 9 254
1951 SI WA 18:00:00 TS -19.65 112.75 290 280 O_____P__OP___ jtwc_sh SH191951 -19.70 113.10 -1 -19.55 112.25 -19.70 113.10 TC -19.77 113.08 7 9 255
1951 SI WA 21:00:00 TS -19.77 112.26 293 300 P_____P__PP___ SH191951 -19.80 112.62 -1 -19.72 111.72 -19.80 112.62 TC -19.85 112.63 7 10 255
1951 SI WA 23:00:00 TS -19.86 111.92 312 312 P_____P__PO___ SH191951 -19.87 112.28 -1 -19.85 111.36 -19.87 112.28 TC -19.90 112.30 7 10 254
1951 SI WA 1951-02-17 00:00:00 TS -19.91 111.74 327 327 O_____P__OP___ jtwc_sh SH191951 -19.90 112.10 -1 -19.92 111.18 -19.90 112.10 TC -19.93 112.12 7 10 254
1951 SI WA 01:00:00 TS -19.96 111.56 990 bom 327 327 P_____O__PP___ SH191951 -19.93 111.92 -1 -20.00 111.00 990 -19.93 111.92 TC -19.96 111.94 7 11 253
1951 SI WA 03:00:00 TS -20.07 111.20 353 353 P_____P__PP___ SH191951 -20.00 111.56 -1 -20.17 110.61 990 -20.00 111.56 TC -20.01 111.56 7 11 252
1951 SI WA 06:00:00 TS -20.24 110.64 400 395 O_____P__OP___ jtwc_sh SH191951 -20.10 111.00 -1 -20.44 110.03 991 -20.10 111.00 TC -20.10 110.97 7 11 252
1951 SI WA 09:00:00 TS -20.41 110.06 437 446 P_____P__PP___ SH191951 -20.19 110.39 -1 -20.74 109.46 992 -20.19 110.39 TC -20.21 110.38 7 11 251
1951 SI WA 11:00:00 TS -20.55 109.69 466 460 P_____P__PO___ SH191951 -20.26 109.99 -1 -20.95 109.09 992 -20.26 109.99 TC -20.30 110.00 7 11 249
1951 SI WA 11:30:00 TS -20.58 109.60 993 bom 470 470 P_____O__PP___ SH191951 -20.28 109.89 -1 -21.00 109.00 993 -20.28 109.89 TC -20.32 109.91 7 11 248
1951 SI WA 12:00:00 TS -20.61 109.51 479 479 O_____P__OP___ jtwc_sh SH191951 -20.30 109.80 -1 -21.04 108.91 -20.30 109.80 TC -20.34 109.82 7 11 246
1951 SI WA 15:00:00 TS -20.84 108.99 515 511 P_____P__PP___ SH191951 -20.48 109.27 -1 -21.30 108.41 -20.48 109.27 TC -20.49 109.28 7 11 243
1951 SI WA 18:00:00 TS -21.10 108.51 552 552 O_____P__OP___ jtwc_sh SH191951 -20.70 108.80 -1 -21.58 107.94 -20.70 108.80 TC -20.67 108.79 7 10 238
1951 SI WA 21:00:00 TS -21.38 108.06 582 589 P_____P__PP___ SH191951 -20.92 108.37 -1 -21.92 107.49 -20.92 108.37 TC -20.90 108.35 7 10 233
1951 SI WA 23:00:00 TS -21.60 107.78 607 607 P_____P__PO___ SH191951 -21.10 108.12 -1 -22.18 107.20 -21.10 108.12 TC -21.10 108.10 7 10 228
1951 SI WA 1951-02-18 00:00:00 TS -21.72 107.64 625 623 O_____P__OP___ jtwc_sh SH191951 -21.20 108.00 -1 -22.34 107.05 -21.20 108.00 TC -21.21 107.97 7 9 229
1951 SI WA 01:00:00 TS -21.80 107.53 998 bom 634 632 P_____O__PP___ SH191951 -21.31 107.88 -1 -22.50 106.90 998 -21.31 107.88 TC -21.32 107.84 7 7 227
1951 SI WA 03:00:00 TS -21.97 107.35 651 650 P_____P__PP___ SH191951 -21.56 107.66 -1 -22.87 106.60 998 -21.56 107.66 TC -21.57 107.62 7 7 216
1951 SI WA 06:00:00 TS -22.30 107.14 668 658 O_____P__OP___ jtwc_sh SH191951 -22.00 107.40 -1 -23.49 106.15 998 -22.00 107.40 TC -22.00 107.36 7 5 201
1951 SI WA 07:00:00 TS -22.27 107.22 998 bom 658 657 P_____O__PP___ SH191951 -22.16 107.33 -1 -23.70 106.00 998 -22.16 107.33 TC -22.15 107.30 7 4 157
1951 SI WA 09:00:00 TS -22.48 107.23 657 654 P________PP___ SH191951 -22.48 107.23 -1 -22.48 107.23 TC -22.47 107.22 7 8 0
1951 SI WA 11:00:00 TS -22.82 107.20 654 649 P________PO___ SH191951 -22.83 107.19 -1 -22.83 107.19 TC -22.80 107.20 7 10 183
1951 SI WA 12:00:00 TS -22.99 107.21 649 627 O________OP___ jtwc_sh SH191951 -23.00 107.20 -1 -23.00 107.20 TC -22.97 107.22 7 10 169
1951 SI WA 15:00:00 TS -23.49 107.34 627 589 P________PP___ SH191951 -23.51 107.31 -1 -23.51 107.31 TC -23.48 107.37 7 11 162
1951 SI WA 18:00:00 TS -24.01 107.58 589 546 O________OP___ jtwc_sh SH191951 -24.00 107.50 -1 -24.00 107.50 TC -24.01 107.63 7 12 152
1951 SI WA 21:00:00 NR -24.54 107.96 546 527 __________P___ SH191951 -1 TC -24.54 107.96 7 13 148
1951 SI WA 23:00:00 NR -24.90 108.20 528 __________O___ SH191951 -1 TC -24.90 108.20 7 13 149